Time;durP1;ratioP1;P1;durP2;ratioP2;P2;SDS_P1;SDS_P2;PMS_P1;PMS_P2;Temp;Humidity;BMP_temperature;BMP_pressure;BME280_temperature;BME280_humidity;BME280_pressure;Samples;Min_cycle;Max_cycle;Signal;HPM_P1;HPM_P2
2021/12/17 00:01:09;;;;;;;33.53;23.80;;;3.30;1.00;;;;;;5070617;28;20198;-76
2021/12/17 00:03:42;;;;;;;32.90;24.33;;;3.10;1.00;;;;;;5069825;28;20210;-77
2021/12/17 00:06:18;;;;;;;32.83;23.87;;;3.10;1.00;;;;;;5070541;28;20301;-77
2021/12/17 00:08:49;;;;;;;29.83;22.63;;;3.00;1.00;;;;;;5070272;28;20217;-74
2021/12/17 00:11:17;;;;;;;28.43;21.13;;;2.90;1.00;;;;;;5069817;28;20203;-69
2021/12/17 00:13:46;;;;;;;30.57;23.47;;;2.90;1.00;;;;;;5070599;28;20202;-76
2021/12/17 00:16:17;;;;;;;30.10;23.33;;;3.00;1.00;;;;;;5070573;28;20206;-74
2021/12/17 00:49:16;;;;;;;31.20;22.77;;;2.60;1.00;;;;;;5073290;28;20201;-73
2021/12/17 00:54:37;;;;;;;31.87;23.47;;;2.50;2.20;;;;;;5070811;28;20241;-77
2021/12/17 00:57:08;;;;;;;30.50;23.40;;;2.40;20.50;;;;;;5073442;28;20224;-78
2021/12/17 00:59:36;;;;;;;28.17;22.00;;;2.50;54.20;;;;;;5073116;28;20240;-77
2021/12/17 01:02:07;;;;;;;28.20;22.70;;;2.40;63.60;;;;;;5073063;28;20248;-76
2021/12/17 01:04:34;;;;;;;34.33;23.03;;;2.60;99.90;;;;;;5072830;28;20214;-78
2021/12/17 01:07:04;;;;;;;28.27;22.47;;;2.60;43.90;;;;;;5073212;28;20202;-77
2021/12/17 01:09:31;;;;;;;26.73;21.53;;;2.40;1.00;;;;;;5072738;28;20202;-75
2021/12/17 01:11:59;;;;;;;30.37;21.10;;;2.30;15.60;;;;;;5073162;28;20210;-76
2021/12/17 01:14:27;;;;;;;27.00;21.47;;;2.30;56.70;;;;;;5072521;28;20762;-76
2021/12/17 01:16:55;;;;;;;33.23;23.20;;;2.30;83.50;;;;;;5072810;28;20260;-76
2021/12/17 01:19:40;;;;;;;26.57;20.73;;;2.20;99.90;;;;;;5072453;28;20203;-76
2021/12/17 01:22:39;;;;;;;24.80;18.87;;;2.20;99.90;;;;;;5072776;28;20206;-76
2021/12/17 01:25:06;;;;;;;26.10;18.53;;;2.30;99.90;;;;;;5072684;28;20692;-75
2021/12/17 01:36:02;;;;;;;30.27;19.80;;;2.30;99.90;;;;;;5065427;28;20316;-75
2021/12/17 01:44:04;;;;;;;26.63;19.93;;;2.20;51.60;;;;;;5068417;28;20227;-73
2021/12/17 01:46:35;;;;;;;27.37;18.57;;;2.20;86.80;;;;;;5071974;28;20210;-75
2021/12/17 01:49:26;;;;;;;27.73;19.10;;;2.20;98.40;;;;;;5072374;28;20202;-77
2021/12/17 02:00:19;;;;;;;26.43;20.10;;;2.10;35.70;;;;;;5071693;28;20688;-70
2021/12/17 02:02:51;;;;;;;26.53;18.33;;;2.00;59.00;;;;;;5072046;28;20224;-75
2021/12/17 02:05:18;;;;;;;26.80;18.27;;;2.00;76.60;;;;;;5071614;28;20203;-74
2021/12/17 02:07:49;;;;;;;23.93;18.10;;;2.00;64.20;;;;;;5071888;28;20692;-75
2021/12/17 02:19:26;;;;;;;25.17;17.57;;;2.20;99.90;;;;;;5071663;28;20206;-75
2021/12/17 02:21:50;;;;;;;23.23;18.00;;;2.20;1.00;;;;;;5071263;28;20209;-75
2021/12/17 02:30:05;;;;;;;22.37;17.57;;;2.30;1.00;;;;;;5061933;28;20234;-76
2021/12/17 02:32:35;;;;;;;24.87;18.03;;;2.30;1.00;;;;;;5071267;28;20213;-76
2021/12/17 02:35:20;;;;;;;23.23;17.00;;;2.30;1.00;;;;;;5071309;28;20717;-75
2021/12/17 02:37:50;;;;;;;26.07;17.70;;;2.30;1.00;;;;;;5071468;28;20216;-75
2021/12/17 02:42:27;;;;;;;25.40;19.57;;;2.20;1.00;;;;;;5070531;28;20255;-74
2021/12/17 02:45:51;;;;;;;30.47;23.97;;;1.90;1.00;;;;;;5071363;28;20214;-74
2021/12/17 02:48:20;;;;;;;33.70;23.17;;;1.90;1.00;;;;;;5070774;28;20206;-74
2021/12/17 02:50:50;;;;;;;28.77;22.10;;;1.90;1.00;;;;;;5071145;28;20202;-73
2021/12/17 02:53:20;;;;;;;34.17;22.70;;;1.90;1.00;;;;;;5070570;28;20235;-71
2021/12/17 02:55:51;;;;;;;24.37;18.93;;;2.10;99.90;;;;;;5070985;28;20234;-72
2021/12/17 02:58:18;;;;;;;25.63;20.43;;;2.10;99.90;;;;;;5070453;28;20271;-71
2021/12/17 03:00:46;;;;;;;33.20;21.97;;;2.00;99.90;;;;;;5072079;28;20206;-70
2021/12/17 03:03:15;;;;;;;28.07;21.60;;;2.00;99.90;;;;;;5087191;28;20228;-71
2021/12/17 03:05:42;;;;;;;27.53;21.73;;;2.10;99.90;;;;;;5088915;28;20206;-71
2021/12/17 03:08:13;;;;;;;27.67;21.33;;;2.00;81.20;;;;;;5071303;28;20572;-72
2021/12/17 03:10:42;;;;;;;29.67;22.37;;;2.10;72.30;;;;;;5071755;28;20206;-73
2021/12/17 03:13:11;;;;;;;29.97;22.53;;;2.10;20.20;;;;;;5074620;28;20267;-72
2021/12/17 03:15:43;;;;;;;27.07;21.13;;;2.10;1.00;;;;;;5070319;28;20605;-71
2021/12/17 03:23:43;;;;;;;31.43;21.70;;;2.00;1.00;;;;;;5090784;28;20204;-71
2021/12/17 03:26:13;;;;;;;31.37;21.90;;;2.00;1.00;;;;;;5090815;28;20250;-73
2021/12/17 03:28:43;;;;;;;28.20;20.10;;;2.00;1.00;;;;;;5090515;28;20212;-71
2021/12/17 03:31:11;;;;;;;24.73;20.67;;;2.00;1.00;;;;;;5090856;28;20201;-71
2021/12/17 03:33:42;;;;;;;24.57;21.23;;;2.00;1.00;;;;;;5090576;28;20229;-71
2021/12/17 03:36:11;;;;;;;27.70;21.00;;;2.00;1.00;;;;;;5090898;28;20231;-72
2021/12/17 03:38:39;;;;;;;25.70;18.00;;;2.00;1.00;;;;;;5090307;28;20561;-70
2021/12/17 03:41:19;;;;;;;29.70;19.00;;;2.00;1.00;;;;;;5090439;28;20688;-70
2021/12/17 03:43:49;;;;;;;25.03;19.50;;;2.00;1.00;;;;;;5090793;28;20197;-71
2021/12/17 03:46:17;;;;;;;25.07;18.40;;;2.00;1.00;;;;;;5090591;28;20201;-69
2021/12/17 03:48:44;;;;;;;29.60;18.40;;;2.00;1.00;;;;;;5090574;28;20202;-71
2021/12/17 03:51:14;;;;;;;24.53;17.93;;;2.00;1.00;;;;;;5091078;28;20206;-71
2021/12/17 03:53:44;;;;;;;22.03;15.90;;;2.00;1.00;;;;;;5093597;28;20308;-69
2021/12/17 03:56:11;;;;;;;20.80;16.87;;;2.00;1.00;;;;;;5090075;28;20316;-72
2021/12/17 03:58:39;;;;;;;27.27;17.20;;;2.00;1.00;;;;;;5091344;28;20201;-72
2021/12/17 04:01:07;;;;;;;24.63;16.67;;;1.90;1.00;;;;;;5094316;28;20205;-72
2021/12/17 04:03:35;;;;;;;22.43;16.43;;;1.90;1.00;;;;;;5092343;28;20208;-73
2021/12/17 04:06:02;;;;;;;23.07;16.87;;;1.90;1.00;;;;;;5093798;28;20193;-72
2021/12/17 04:08:29;;;;;;;18.37;14.77;;;1.90;1.00;;;;;;5094265;28;20198;-71
2021/12/17 04:11:03;;;;;;;25.07;17.87;;;1.90;1.00;;;;;;5094373;28;20326;-72
2021/12/17 04:13:34;;;;;;;19.43;14.10;;;1.90;1.00;;;;;;5094175;28;20198;-72
2021/12/17 04:16:05;;;;;;;18.60;13.73;;;1.80;1.00;;;;;;5094288;28;20265;-71
2021/12/17 04:18:35;;;;;;;23.47;16.50;;;1.80;1.00;;;;;;5094018;28;20215;-71
2021/12/17 04:21:05;;;;;;;24.17;15.50;;;1.70;1.00;;;;;;5094501;28;20201;-72
2021/12/17 04:23:32;;;;;;;25.80;16.50;;;1.70;1.00;;;;;;5093972;28;20197;-73
2021/12/17 04:26:00;;;;;;;21.93;16.03;;;1.80;1.00;;;;;;5093965;28;20764;-72
2021/12/17 04:28:27;;;;;;;23.20;15.40;;;1.80;1.00;;;;;;5093743;28;20209;-72
2021/12/17 04:30:55;;;;;;;16.43;14.37;;;1.80;1.00;;;;;;5094208;28;20209;-72
2021/12/17 04:33:22;;;;;;;19.73;14.63;;;1.80;1.00;;;;;;5093713;28;20245;-71
2021/12/17 04:35:50;;;;;;;21.47;14.07;;;1.80;1.00;;;;;;5094119;28;20777;-72
2021/12/17 04:38:18;;;;;;;19.00;13.80;;;1.70;1.00;;;;;;5093349;28;20201;-70
2021/12/17 04:40:45;;;;;;;18.43;13.90;;;1.80;1.00;;;;;;5093895;28;20296;-70
2021/12/17 04:43:22;;;;;;;19.43;15.03;;;1.80;1.00;;;;;;5093889;28;20211;-71
2021/12/17 04:45:58;;;;;;;16.77;13.80;;;1.80;1.00;;;;;;5093876;28;20205;-71
2021/12/17 04:59:24;;;;;;;18.73;13.53;;;1.60;1.00;;;;;;5093313;28;20280;-71
2021/12/17 05:01:51;;;;;;;15.67;13.07;;;1.50;1.00;;;;;;5093409;28;20678;-71
2021/12/17 05:04:19;;;;;;;20.17;14.00;;;1.60;1.00;;;;;;5093137;28;20205;-70
2021/12/17 05:06:47;;;;;;;17.20;13.13;;;1.60;1.00;;;;;;5093479;28;20215;-71
2021/12/17 05:09:25;;;;;;;20.50;14.20;;;1.60;1.00;;;;;;5093166;28;20201;-67
2021/12/17 05:20:18;;;;;;;21.27;13.63;;;2.00;1.00;;;;;;5093311;28;20240;-71
2021/12/17 05:22:52;;;;;;;16.23;12.90;;;2.10;1.00;;;;;;5092935;28;20738;-70
2021/12/17 05:25:19;;;;;;;17.60;12.33;;;2.60;99.90;;;;;;5092550;28;20668;-71
2021/12/17 05:27:46;;;;;;;16.47;12.33;;;3.30;1.00;;;;;;5093207;28;20681;-71
2021/12/17 05:30:13;;;;;;;20.90;12.67;;;3.40;1.00;;;;;;5093066;28;20205;-71
2021/12/17 05:32:40;;;;;;;15.13;11.03;;;3.80;1.00;;;;;;5092860;28;20672;-71
2021/12/17 05:35:08;;;;;;;15.73;10.60;;;4.20;1.00;;;;;;5092713;28;20632;-74
2021/12/17 05:37:35;;;;;;;17.43;12.40;;;4.20;1.00;;;;;;5092289;28;20205;-73
2021/12/17 05:40:05;;;;;;;18.77;12.30;;;4.30;99.90;;;;;;5092697;28;20213;-71
2021/12/17 05:42:32;;;;;;;16.00;11.90;;;4.40;99.90;;;;;;5092186;28;20217;-73
2021/12/17 05:45:07;;;;;;;16.03;11.90;;;4.40;99.90;;;;;;5092626;28;20669;-72
2021/12/17 05:47:34;;;;;;;17.40;11.77;;;4.60;99.90;;;;;;5092202;28;20241;-72
2021/12/17 05:50:01;;;;;;;19.43;13.07;;;4.70;99.90;;;;;;5092535;28;20202;-73
2021/12/17 05:52:28;;;;;;;16.53;12.40;;;4.70;39.00;;;;;;5084238;28;20206;-71
2021/12/17 05:54:55;;;;;;;18.47;12.60;;;4.60;62.10;;;;;;5090165;28;20210;-70
2021/12/17 05:57:23;;;;;;;18.80;12.87;;;4.70;99.90;;;;;;5075300;28;20728;-72
2021/12/17 05:59:50;;;;;;;17.87;13.90;;;4.70;83.60;;;;;;5071919;28;20202;-72
2021/12/17 06:02:19;;;;;;;25.27;16.30;;;4.50;99.00;;;;;;5077000;28;20217;-71
2021/12/17 06:04:46;;;;;;;17.80;13.33;;;4.30;86.30;;;;;;5092279;28;20205;-75
2021/12/17 06:07:13;;;;;;;17.90;14.10;;;4.40;99.90;;;;;;5092510;28;20282;-73
2021/12/17 06:09:40;;;;;;;19.70;13.30;;;4.40;99.90;;;;;;5087533;28;20210;-70
2021/12/17 06:12:08;;;;;;;18.20;13.27;;;4.70;99.90;;;;;;5071896;28;20213;-70
2021/12/17 06:14:36;;;;;;;22.10;15.00;;;4.70;99.90;;;;;;5071392;28;20626;-70
2021/12/17 06:17:04;;;;;;;19.33;13.07;;;4.50;92.20;;;;;;5071055;28;20296;-70
2021/12/17 06:19:31;;;;;;;16.47;12.83;;;4.70;99.90;;;;;;5071571;28;20198;-71
2021/12/17 06:21:58;;;;;;;19.20;13.43;;;4.70;99.90;;;;;;5071485;28;20673;-70
2021/12/17 06:24:26;;;;;;;16.40;12.50;;;4.60;87.60;;;;;;5071408;28;20228;-70
2021/12/17 06:26:53;;;;;;;22.97;14.73;;;4.70;31.90;;;;;;5081414;28;20214;-70
2021/12/17 06:29:20;;;;;;;23.63;15.37;;;4.70;1.00;;;;;;5090391;28;20206;-69
2021/12/17 06:31:49;;;;;;;20.07;12.93;;;4.70;1.00;;;;;;5084853;28;20678;-69
2021/12/17 06:34:16;;;;;;;20.57;13.80;;;4.70;1.00;;;;;;5090170;28;20211;-66
2021/12/17 06:36:43;;;;;;;20.43;13.57;;;4.60;1.00;;;;;;5087175;28;20226;-66
2021/12/17 06:39:10;;;;;;;15.93;12.80;;;4.50;1.00;;;;;;5083753;28;20251;-68
2021/12/17 06:41:38;;;;;;;16.67;12.17;;;4.60;70.80;;;;;;5090854;28;20217;-67
2021/12/17 06:44:07;;;;;;;15.77;12.97;;;4.60;59.50;;;;;;5084079;28;20251;-68
2021/12/17 06:46:46;;;;;;;17.83;12.83;;;4.70;1.00;;;;;;5083773;28;20212;-68
2021/12/17 06:49:24;;;;;;;18.93;13.00;;;4.60;1.00;;;;;;5085214;28;20204;-69
2021/12/17 06:54:51;;;;;;;17.57;13.40;;;4.70;1.00;;;;;;5090668;28;20695;-67
2021/12/17 07:00:39;;;;;;;22.10;13.83;;;4.40;1.00;;;;;;5103734;27;21108;-67
2021/12/17 07:05:59;;;;;;;18.00;14.03;;;4.30;99.90;;;;;;5074594;28;20246;-68
2021/12/17 07:11:22;;;;;;;18.17;14.20;;;4.30;99.90;;;;;;5087582;28;20219;-70
2021/12/17 07:22:05;;;;;;;17.30;11.57;;;4.40;1.00;;;;;;5087728;28;20201;-71
2021/12/17 07:33:07;;;;;;;16.10;12.50;;;4.60;1.00;;;;;;5067671;28;20251;-71
2021/12/17 07:35:45;;;;;;;13.47;11.20;;;4.60;1.00;;;;;;5067046;28;20743;-71
2021/12/17 07:41:11;;;;;;;17.43;11.63;;;4.50;1.00;;;;;;5005978;28;20217;-70
2021/12/17 07:43:40;;;;;;;13.20;10.23;;;4.80;1.00;;;;;;5005351;28;20209;-70
2021/12/17 07:46:10;;;;;;;13.27;9.67;;;5.20;1.00;;;;;;5032810;28;20584;-70
2021/12/17 07:48:40;;;;;;;14.17;11.40;;;5.20;1.00;;;;;;5066863;28;20724;-70
2021/12/17 07:51:10;;;;;;;15.27;9.63;;;5.10;1.00;;;;;;5066924;28;20670;-71
2021/12/17 07:53:38;;;;;;;15.50;11.30;;;5.00;1.00;;;;;;5066734;28;20267;-70
2021/12/17 07:56:06;;;;;;;10.33;8.67;;;5.30;1.00;;;;;;5067004;28;20203;-71
2021/12/17 07:58:34;;;;;;;11.40;8.43;;;5.40;1.00;;;;;;5066378;28;20234;-71
2021/12/17 08:01:01;;;;;;;9.83;8.00;;;5.50;1.00;;;;;;5066877;28;20676;-71
2021/12/17 08:03:28;;;;;;;11.50;9.37;;;5.40;1.00;;;;;;5071957;28;20202;-71
2021/12/17 08:05:57;;;;;;;9.60;8.17;;;5.40;1.00;;;;;;5087155;28;20628;-71
2021/12/17 08:08:24;;;;;;;12.53;8.47;;;5.30;1.00;;;;;;5086776;28;20202;-70
2021/12/17 08:10:51;;;;;;;10.33;9.00;;;5.40;1.00;;;;;;5078296;28;20202;-71
2021/12/17 08:13:22;;;;;;;12.83;8.77;;;5.60;1.00;;;;;;5072963;28;20206;-71
2021/12/17 08:16:06;;;;;;;14.53;8.40;;;5.80;1.00;;;;;;5073309;28;20198;-71
2021/12/17 08:18:49;;;;;;;11.13;8.40;;;6.00;1.00;;;;;;5072816;28;20733;-70
2021/12/17 08:24:46;;;;;;;9.63;7.23;;;6.10;1.00;;;;;;5073307;28;20689;-71
2021/12/17 08:27:24;;;;;;;7.87;6.27;;;6.30;1.00;;;;;;5072953;28;20208;-71
2021/12/17 08:29:55;;;;;;;9.57;6.83;;;7.00;1.00;;;;;;5073169;28;20215;-71
2021/12/17 08:32:23;;;;;;;8.97;6.53;;;7.90;1.00;;;;;;5072640;28;20255;-71
2021/12/17 08:34:50;;;;;;;9.63;7.07;;;7.70;1.00;;;;;;5073294;28;20212;-70
2021/12/17 08:37:19;;;;;;;6.30;5.30;;;8.00;1.00;;;;;;5072866;28;20244;-69
2021/12/17 08:39:45;;;;;;;5.53;4.90;;;7.70;1.00;;;;;;5073024;28;20299;-71
2021/12/17 08:42:13;;;;;;;8.03;5.57;;;8.30;1.00;;;;;;5073276;28;20264;-70
2021/12/17 08:44:40;;;;;;;6.40;5.30;;;7.70;1.00;;;;;;5072777;28;20247;-73
2021/12/17 08:47:08;;;;;;;9.03;5.43;;;8.00;1.00;;;;;;5072197;28;20738;-73
2021/12/17 08:49:35;;;;;;;6.77;5.50;;;7.50;1.00;;;;;;5072588;28;20255;-69
2021/12/17 08:52:02;;;;;;;10.10;6.50;;;7.40;1.00;;;;;;5072819;28;20602;-70
2021/12/17 08:54:31;;;;;;;6.13;5.27;;;7.30;1.00;;;;;;5072533;28;20202;-69
2021/12/17 08:56:58;;;;;;;6.10;4.13;;;7.60;1.00;;;;;;5072806;28;20197;-70
2021/12/17 08:59:27;;;;;;;7.50;5.27;;;8.00;1.00;;;;;;5071830;28;20229;-70
2021/12/17 09:01:54;;;;;;;6.00;4.37;;;9.50;1.00;;;;;;5072622;28;20620;-69
2021/12/17 09:04:21;;;;;;;7.83;5.30;;;9.40;1.00;;;;;;5072199;28;20206;-69
2021/12/17 09:06:48;;;;;;;6.63;5.00;;;9.50;1.00;;;;;;5072367;28;20203;-70
2021/12/17 09:09:20;;;;;;;8.07;4.87;;;8.90;1.00;;;;;;5072416;28;20670;-67
2021/12/17 09:11:49;;;;;;;7.03;4.87;;;8.70;1.00;;;;;;5072443;28;20202;-66
2021/12/17 09:14:19;;;;;;;6.13;5.43;;;8.90;1.00;;;;;;5072291;28;20275;-65
2021/12/17 09:16:46;;;;;;;6.17;4.13;;;9.10;1.00;;;;;;5072215;28;20568;-70
2021/12/17 09:19:14;;;;;;;6.53;4.40;;;9.30;1.00;;;;;;5072537;28;20700;-71
2021/12/17 09:21:41;;;;;;;6.20;5.00;;;9.30;1.00;;;;;;5071290;28;20555;-71
2021/12/17 09:24:08;;;;;;;5.30;4.77;;;9.50;1.00;;;;;;5071968;28;20263;-71
2021/12/17 09:26:35;;;;;;;7.03;4.50;;;10.80;1.00;;;;;;5071557;28;20637;-70
2021/12/17 09:29:04;;;;;;;5.33;3.97;;;10.90;1.00;;;;;;5072116;28;20254;-69
2021/12/17 09:31:31;;;;;;;6.23;4.47;;;10.70;1.00;;;;;;5059461;28;20261;-71
2021/12/17 09:33:58;;;;;;;4.93;4.43;;;11.60;1.00;;;;;;5058265;28;20666;-70
2021/12/17 09:36:25;;;;;;;7.07;4.80;;;12.10;1.00;;;;;;5056745;28;20561;-71
2021/12/17 09:38:53;;;;;;;6.27;5.17;;;12.60;1.00;;;;;;5054386;28;20207;-71
2021/12/17 09:41:20;;;;;;;5.23;4.67;;;11.40;1.00;;;;;;5062069;28;20210;-69
2021/12/17 09:43:48;;;;;;;4.93;4.37;;;11.30;1.00;;;;;;5071331;28;20252;-69
2021/12/17 09:46:17;;;;;;;5.60;5.03;;;13.10;1.00;;;;;;5070048;28;20211;-71
2021/12/17 09:48:47;;;;;;;6.40;4.17;;;11.70;1.00;;;;;;5067566;28;20218;-71
2021/12/17 09:51:15;;;;;;;5.00;4.07;;;13.40;1.00;;;;;;5060746;28;20683;-68
2021/12/17 09:53:43;;;;;;;6.18;5.07;;;12.60;1.00;;;;;;5065165;28;20210;-69
2021/12/17 09:56:10;;;;;;;5.88;4.72;;;12.80;1.00;;;;;;5069814;28;20228;-70
2021/12/17 09:58:37;;;;;;;8.65;5.30;;;13.90;1.00;;;;;;5065823;28;20217;-69
2021/12/17 10:01:04;;;;;;;6.85;5.53;;;12.90;1.00;;;;;;5068863;28;20295;-70
2021/12/17 10:03:32;;;;;;;19.38;6.03;;;14.30;1.00;;;;;;5061723;28;20206;-71
2021/12/17 10:05:59;;;;;;;5.28;4.70;;;14.70;1.00;;;;;;5070615;28;20260;-70
2021/12/17 10:08:27;;;;;;;5.70;5.10;;;12.50;1.00;;;;;;5068895;28;20264;-70
2021/12/17 10:10:57;;;;;;;6.22;5.00;;;14.10;1.00;;;;;;5070660;28;20210;-69
2021/12/17 10:13:26;;;;;;;5.38;4.63;;;14.00;1.00;;;;;;5060320;28;20260;-69
2021/12/17 10:15:55;;;;;;;7.32;5.68;;;14.60;1.00;;;;;;5064327;28;20693;-71
2021/12/17 10:18:35;;;;;;;5.47;4.93;;;14.60;1.00;;;;;;5068125;28;20723;-71
2021/12/17 10:21:04;;;;;;;7.05;5.53;;;12.50;1.00;;;;;;5070436;28;20287;-70
2021/12/17 10:23:32;;;;;;;7.18;4.95;;;12.00;1.00;;;;;;5070574;28;20263;-69
2021/12/17 10:25:59;;;;;;;6.68;6.03;;;13.20;1.00;;;;;;5068195;28;20706;-71
2021/12/17 10:28:26;;;;;;;7.10;5.80;;;12.20;1.00;;;;;;5065604;28;20607;-71
2021/12/17 10:30:55;;;;;;;6.05;4.78;;;12.10;1.00;;;;;;5069510;28;20727;-69
2021/12/17 10:33:24;;;;;;;6.32;5.15;;;12.50;1.00;;;;;;5070175;28;20210;-70
2021/12/17 10:35:55;;;;;;;9.87;5.80;;;13.70;1.00;;;;;;5057148;28;20205;-70
2021/12/17 10:38:26;;;;;;;6.00;4.93;;;14.50;1.00;;;;;;5070151;28;20237;-68
2021/12/17 10:41:00;;;;;;;6.03;5.43;;;13.10;1.00;;;;;;5070088;28;20234;-70
2021/12/17 10:43:32;;;;;;;5.80;4.87;;;12.50;1.00;;;;;;5070182;28;20204;-71
2021/12/17 10:46:05;;;;;;;7.70;6.07;;;10.20;1.00;;;;;;5070145;28;20206;-71
2021/12/17 10:48:35;;;;;;;6.57;5.77;;;9.50;1.00;;;;;;5066955;28;20206;-70
2021/12/17 10:51:29;;;;;;;6.80;5.53;;;9.20;1.00;;;;;;5065974;28;20220;-71
2021/12/17 10:53:59;;;;;;;7.57;5.30;;;9.20;1.00;;;;;;5061359;28;20268;-69
2021/12/17 10:56:30;;;;;;;8.23;5.27;;;9.30;1.00;;;;;;5057927;28;20211;-70
2021/12/17 10:59:00;;;;;;;7.60;5.30;;;9.30;1.00;;;;;;5062812;28;20248;-68
2021/12/17 11:01:41;;;;;;;7.93;5.53;;;9.20;1.00;;;;;;5064274;28;20268;-68
2021/12/17 11:04:11;;;;;;;5.63;5.03;;;9.30;1.00;;;;;;5068615;28;20205;-69
2021/12/17 11:06:44;;;;;;;5.30;4.80;;;9.30;1.00;;;;;;5063628;28;20206;-69
2021/12/17 11:09:11;;;;;;;8.80;4.97;;;9.30;1.00;;;;;;5070627;28;20285;-70
2021/12/17 11:11:42;;;;;;;8.23;5.40;;;9.30;1.00;;;;;;5062317;28;20280;-70
2021/12/17 11:14:09;;;;;;;8.47;5.50;;;9.50;1.00;;;;;;5066286;28;20271;-69
2021/12/17 11:16:39;;;;;;;8.60;5.63;;;9.60;1.00;;;;;;5070036;28;20355;-70
2021/12/17 11:19:08;;;;;;;7.67;6.80;;;9.70;1.00;;;;;;5069828;28;20210;-70
2021/12/17 11:21:35;;;;;;;7.27;5.90;;;9.70;1.00;;;;;;5068552;28;20214;-70
2021/12/17 11:24:04;;;;;;;9.07;5.80;;;9.70;1.00;;;;;;5070255;28;20206;-68
2021/12/17 11:26:32;;;;;;;8.83;6.23;;;9.80;1.00;;;;;;5065405;28;20252;-70
2021/12/17 11:29:03;;;;;;;6.97;5.67;;;9.90;1.00;;;;;;5063892;28;20659;-69
2021/12/17 11:31:31;;;;;;;8.20;6.57;;;9.70;1.00;;;;;;5067458;28;20581;-69
2021/12/17 11:34:00;;;;;;;7.90;5.23;;;9.70;1.00;;;;;;5062328;28;20296;-69
2021/12/17 11:36:28;;;;;;;7.77;5.93;;;9.90;1.00;;;;;;5060310;28;20229;-68
2021/12/17 11:39:03;;;;;;;7.60;5.10;;;10.00;1.00;;;;;;5055065;28;20214;-68
2021/12/17 11:41:44;;;;;;;9.13;5.13;;;10.10;1.00;;;;;;5054248;28;20241;-65
2021/12/17 11:44:12;;;;;;;7.60;5.90;;;10.10;1.00;;;;;;5050286;28;20203;-69
2021/12/17 11:46:40;;;;;;;7.17;5.80;;;10.20;1.00;;;;;;5060983;28;20570;-69
2021/12/17 11:49:13;;;;;;;8.27;5.00;;;10.30;1.00;;;;;;5074117;28;20202;-70
2021/12/17 11:51:41;;;;;;;5.27;4.77;;;10.30;1.00;;;;;;5058799;28;20280;-70
2021/12/17 11:54:10;;;;;;;10.70;5.83;;;10.20;1.00;;;;;;5053593;28;20203;-69
2021/12/17 11:56:49;;;;;;;8.10;5.47;;;10.40;1.00;;;;;;5056117;28;20210;-70
2021/12/17 11:59:37;;;;;;;6.40;4.70;;;10.50;1.00;;;;;;5073091;28;20214;-66
2021/12/17 12:02:19;;;;;;;6.20;4.10;;;10.60;1.00;;;;;;5068000;28;21031;-70
2021/12/17 12:04:54;;;;;;;7.27;5.23;;;10.60;1.00;;;;;;5069691;28;20214;-69
2021/12/17 12:07:33;;;;;;;8.53;5.37;;;10.50;1.00;;;;;;5053388;28;20216;-69
2021/12/17 12:10:03;;;;;;;5.13;4.13;;;10.50;1.00;;;;;;5054494;28;20206;-70
2021/12/17 12:12:57;;;;;;;8.30;6.43;;;10.50;1.00;;;;;;5073362;28;20198;-70
2021/12/17 12:15:36;;;;;;;6.67;4.37;;;10.60;1.00;;;;;;5072620;28;20658;-69
2021/12/17 12:18:06;;;;;;;6.17;4.80;;;10.60;1.00;;;;;;5066342;28;20203;-71
2021/12/17 12:21:00;;;;;;;7.10;5.23;;;10.40;1.00;;;;;;5068458;28;20665;-71
2021/12/17 12:23:49;;;;;;;7.30;4.30;;;10.40;1.00;;;;;;5063428;28;20217;-70
2021/12/17 12:26:40;;;;;;;7.27;5.40;;;10.40;1.00;;;;;;5072761;28;20674;-63
2021/12/17 12:29:15;;;;;;;6.47;5.17;;;10.60;1.00;;;;;;5058051;28;20302;-70
2021/12/17 12:32:02;;;;;;;5.93;4.73;;;10.60;1.00;;;;;;5053510;28;20557;-68
2021/12/17 12:34:32;;;;;;;7.17;5.00;;;10.70;1.00;;;;;;5052742;28;20649;-71
2021/12/17 12:37:03;;;;;;;6.30;4.80;;;10.80;1.00;;;;;;5053885;28;20678;-70
2021/12/17 12:39:34;;;;;;;6.97;5.63;;;10.80;1.00;;;;;;5065002;28;20267;-70
2021/12/17 12:42:06;;;;;;;6.43;5.33;;;10.70;1.00;;;;;;5053060;28;20663;-70
2021/12/17 12:45:10;;;;;;;7.40;5.17;;;10.90;1.00;;;;;;5061648;28;20198;-70
2021/12/17 12:48:00;;;;;;;7.87;5.13;;;11.00;1.00;;;;;;5065600;28;20285;-69
2021/12/17 12:50:30;;;;;;;7.60;4.53;;;11.00;1.00;;;;;;5070247;28;20232;-70
2021/12/17 12:53:00;;;;;;;7.20;4.87;;;11.00;1.00;;;;;;5072716;28;20205;-71
2021/12/17 12:55:30;;;;;;;5.47;4.50;;;10.90;1.00;;;;;;5072891;28;20202;-67
2021/12/17 12:58:06;;;;;;;8.23;5.50;;;10.90;1.00;;;;;;5061121;28;20234;-70
2021/12/17 13:00:38;;;;;;;6.47;4.50;;;10.90;1.00;;;;;;5071606;28;20611;-71
2021/12/17 13:03:07;;;;;;;7.73;5.77;;;10.90;1.00;;;;;;5059725;28;20217;-70
2021/12/17 13:05:35;;;;;;;7.43;5.57;;;11.00;1.00;;;;;;5067489;28;20801;-70
2021/12/17 13:08:05;;;;;;;7.73;5.10;;;11.00;1.00;;;;;;5063070;28;20202;-70
2021/12/17 13:10:34;;;;;;;8.07;5.10;;;10.80;1.00;;;;;;5071699;28;20256;-70
2021/12/17 13:13:07;;;;;;;5.40;4.53;;;10.90;1.00;;;;;;5071776;28;20210;-70
2021/12/17 13:15:43;;;;;;;6.03;4.87;;;10.90;1.00;;;;;;5071579;28;20648;-70
2021/12/17 13:21:18;;;;;;;11.10;7.53;;;10.90;1.00;;;;;;5063185;28;20233;-70
2021/12/17 13:23:50;;;;;;;7.50;6.17;;;11.00;1.00;;;;;;5061770;28;20217;-69
2021/12/17 13:26:19;;;;;;;7.27;5.03;;;11.00;1.00;;;;;;5064330;28;20692;-69
2021/12/17 13:29:11;;;;;;;8.27;5.03;;;11.10;1.00;;;;;;5063079;28;20570;-70
2021/12/17 13:31:46;;;;;;;7.00;5.83;;;11.00;1.00;;;;;;5061892;28;20261;-70
2021/12/17 13:34:17;;;;;;;5.23;4.27;;;11.10;1.00;;;;;;5060289;28;20206;-70
2021/12/17 13:36:54;;;;;;;5.63;5.10;;;11.10;1.00;;;;;;5061340;28;20564;-68
2021/12/17 13:39:23;;;;;;;5.70;4.60;;;11.20;1.00;;;;;;5071249;28;20239;-69
2021/12/17 13:41:51;;;;;;;7.60;5.90;;;11.20;1.00;;;;;;5071030;28;20245;-70
2021/12/17 13:44:31;;;;;;;8.37;5.70;;;11.10;1.00;;;;;;5070812;28;20234;-69
2021/12/17 13:47:28;;;;;;;6.47;4.80;;;11.10;1.00;;;;;;5070979;28;20224;-68
2021/12/17 13:50:05;;;;;;;5.97;4.83;;;11.10;1.00;;;;;;5071148;28;20242;-69
2021/12/17 13:52:33;;;;;;;8.57;5.50;;;11.20;1.00;;;;;;5070844;28;20209;-69
2021/12/17 13:55:04;;;;;;;7.70;5.70;;;11.00;1.00;;;;;;5070124;28;20256;-69
2021/12/17 13:57:33;;;;;;;8.73;5.50;;;11.00;1.00;;;;;;5070620;28;20273;-69
2021/12/17 14:00:11;;;;;;;7.53;6.10;;;11.00;1.00;;;;;;5070879;28;20217;-69
2021/12/17 14:02:41;;;;;;;6.27;5.63;;;11.00;1.00;;;;;;5059617;28;20268;-68
2021/12/17 14:05:10;;;;;;;6.83;5.30;;;11.00;1.00;;;;;;5065540;28;20198;-70
2021/12/17 14:07:39;;;;;;;12.10;5.60;;;11.00;1.00;;;;;;5069942;28;20206;-70
2021/12/17 14:10:09;;;;;;;7.07;5.23;;;11.00;1.00;;;;;;5070627;28;20198;-69
2021/12/17 14:12:39;;;;;;;10.13;6.33;;;11.00;1.00;;;;;;5070233;28;20250;-69
2021/12/17 14:15:09;;;;;;;6.47;5.43;;;11.00;1.00;;;;;;5070929;28;20601;-70
2021/12/17 14:17:42;;;;;;;7.73;6.03;;;11.10;1.00;;;;;;5069576;28;20291;-67
2021/12/17 14:20:12;;;;;;;5.87;5.27;;;11.10;1.00;;;;;;5070640;28;20206;-69
2021/12/17 14:22:42;;;;;;;7.27;5.20;;;11.00;1.00;;;;;;5070487;28;20210;-68
2021/12/17 14:25:39;;;;;;;8.93;5.93;;;11.10;1.00;;;;;;5068977;28;20678;-68
2021/12/17 14:28:15;;;;;;;5.60;4.23;;;11.00;1.00;;;;;;5059646;28;20206;-68
2021/12/17 14:30:44;;;;;;;8.67;7.10;;;11.00;1.00;;;;;;5070926;28;20205;-69
2021/12/17 14:33:15;;;;;;;7.63;5.33;;;11.00;1.00;;;;;;5067456;28;20199;-70
2021/12/17 14:35:56;;;;;;;5.73;5.00;;;11.00;1.00;;;;;;5062813;28;20209;-69
2021/12/17 14:38:35;;;;;;;6.33;5.33;;;10.90;1.00;;;;;;5059448;28;20206;-69
2021/12/17 14:41:04;;;;;;;6.47;5.87;;;10.90;1.00;;;;;;5064263;28;20680;-70
2021/12/17 14:43:38;;;;;;;7.17;5.47;;;10.90;1.00;;;;;;5065390;28;20260;-70
2021/12/17 14:46:15;;;;;;;7.27;6.03;;;10.80;1.00;;;;;;5070570;28;20205;-70
2021/12/17 14:48:56;;;;;;;10.43;6.47;;;10.80;1.00;;;;;;5066806;28;20556;-70
2021/12/17 15:05:21;;;;;;;7.67;5.07;;;10.80;1.00;;;;;;5064692;28;20213;-68
2021/12/17 15:07:49;;;;;;;7.97;5.53;;;10.70;1.00;;;;;;5069488;28;20263;-69
2021/12/17 15:10:18;;;;;;;7.13;5.60;;;10.70;1.00;;;;;;5069977;28;20206;-64
2021/12/17 15:12:46;;;;;;;8.37;6.23;;;10.60;1.00;;;;;;5056030;28;20724;-69
2021/12/17 15:15:16;;;;;;;7.10;6.10;;;10.60;1.00;;;;;;5070660;28;20625;-70
2021/12/17 15:17:44;;;;;;;7.23;6.43;;;10.60;1.00;;;;;;5070409;28;20214;-69
2021/12/17 15:20:13;;;;;;;7.27;5.30;;;10.60;1.00;;;;;;5062969;28;20207;-69
2021/12/17 15:22:42;;;;;;;5.03;4.57;;;10.60;1.00;;;;;;5064054;28;20291;-69
2021/12/17 15:25:11;;;;;;;6.33;5.07;;;10.60;1.00;;;;;;5073743;28;20213;-69
2021/12/17 15:27:39;;;;;;;8.03;5.40;;;10.50;1.00;;;;;;5067153;28;20234;-69
2021/12/17 15:30:10;;;;;;;7.37;5.57;;;10.50;1.00;;;;;;5064810;28;20202;-69
2021/12/17 15:32:37;;;;;;;5.77;5.17;;;10.30;1.00;;;;;;5068699;28;20214;-69
2021/12/17 15:35:04;;;;;;;6.77;5.03;;;10.30;1.00;;;;;;5070762;28;21122;-70
2021/12/17 15:37:32;;;;;;;9.17;5.90;;;10.30;1.00;;;;;;5073767;28;20233;-71
2021/12/17 15:40:00;;;;;;;5.27;4.77;;;10.20;1.00;;;;;;5073728;28;20206;-69
2021/12/17 15:42:28;;;;;;;5.97;4.83;;;10.10;1.00;;;;;;5066274;28;20786;-69